sensor_id;sensor_type;location;lat;lon;timestamp;P1;durP1;ratioP1;P2;durP2;ratioP2
7683;SDS011;3884;48.616;12.872;2022-07-19T00:02:30;3.53;;;2.40;;
7683;SDS011;3884;48.616;12.872;2022-07-19T00:04:57;3.73;;;2.50;;
7683;SDS011;3884;48.616;12.872;2022-07-19T00:07:24;4.43;;;2.80;;
7683;SDS011;3884;48.616;12.872;2022-07-19T00:09:51;4.23;;;2.60;;
7683;SDS011;3884;48.616;12.872;2022-07-19T00:12:18;2.50;;;2.30;;
7683;SDS011;3884;48.616;12.872;2022-07-19T00:14:44;3.57;;;2.70;;
7683;SDS011;3884;48.616;12.872;2022-07-19T00:17:13;2.60;;;2.40;;
7683;SDS011;3884;48.616;12.872;2022-07-19T00:19:40;3.10;;;2.80;;
7683;SDS011;3884;48.616;12.872;2022-07-19T00:22:07;3.13;;;2.93;;
7683;SDS011;3884;48.616;12.872;2022-07-19T00:24:33;2.97;;;2.73;;
7683;SDS011;3884;48.616;12.872;2022-07-19T00:27:00;2.63;;;2.30;;
7683;SDS011;3884;48.616;12.872;2022-07-19T00:29:27;4.07;;;2.90;;
7683;SDS011;3884;48.616;12.872;2022-07-19T00:31:54;2.90;;;2.50;;
7683;SDS011;3884;48.616;12.872;2022-07-19T00:34:22;3.10;;;2.80;;
7683;SDS011;3884;48.616;12.872;2022-07-19T00:36:49;3.23;;;2.60;;
7683;SDS011;3884;48.616;12.872;2022-07-19T00:39:16;2.87;;;2.57;;
7683;SDS011;3884;48.616;12.872;2022-07-19T00:41:43;3.13;;;2.90;;
7683;SDS011;3884;48.616;12.872;2022-07-19T00:44:10;3.37;;;2.73;;
7683;SDS011;3884;48.616;12.872;2022-07-19T00:46:38;3.10;;;2.60;;
7683;SDS011;3884;48.616;12.872;2022-07-19T00:49:05;2.97;;;2.67;;
7683;SDS011;3884;48.616;12.872;2022-07-19T00:51:34;2.77;;;2.50;;
7683;SDS011;3884;48.616;12.872;2022-07-19T00:54:05;3.73;;;2.50;;
7683;SDS011;3884;48.616;12.872;2022-07-19T00:56:34;3.07;;;2.77;;
7683;SDS011;3884;48.616;12.872;2022-07-19T00:59:02;3.33;;;2.50;;
7683;SDS011;3884;48.616;12.872;2022-07-19T01:01:31;3.40;;;2.70;;
7683;SDS011;3884;48.616;12.872;2022-07-19T01:03:58;3.50;;;2.47;;
7683;SDS011;3884;48.616;12.872;2022-07-19T01:06:25;2.70;;;2.50;;
7683;SDS011;3884;48.616;12.872;2022-07-19T01:08:54;5.63;;;2.70;;
7683;SDS011;3884;48.616;12.872;2022-07-19T01:11:20;2.93;;;2.63;;
7683;SDS011;3884;48.616;12.872;2022-07-19T01:13:48;4.53;;;2.67;;
7683;SDS011;3884;48.616;12.872;2022-07-19T01:16:15;3.10;;;2.70;;
7683;SDS011;3884;48.616;12.872;2022-07-19T01:18:42;2.97;;;2.77;;
7683;SDS011;3884;48.616;12.872;2022-07-19T01:21:14;2.80;;;2.50;;
7683;SDS011;3884;48.616;12.872;2022-07-19T01:23:45;4.67;;;2.87;;
7683;SDS011;3884;48.616;12.872;2022-07-19T01:26:12;2.90;;;2.70;;
7683;SDS011;3884;48.616;12.872;2022-07-19T01:28:39;4.77;;;3.10;;
7683;SDS011;3884;48.616;12.872;2022-07-19T01:31:05;4.87;;;2.70;;
7683;SDS011;3884;48.616;12.872;2022-07-19T01:33:37;2.70;;;2.50;;
7683;SDS011;3884;48.616;12.872;2022-07-19T01:36:05;3.13;;;2.83;;
7683;SDS011;3884;48.616;12.872;2022-07-19T01:38:34;3.40;;;2.70;;
7683;SDS011;3884;48.616;12.872;2022-07-19T01:41:01;3.27;;;2.90;;
7683;SDS011;3884;48.616;12.872;2022-07-19T01:43:29;2.83;;;2.63;;
7683;SDS011;3884;48.616;12.872;2022-07-19T01:45:56;4.17;;;2.90;;
7683;SDS011;3884;48.616;12.872;2022-07-19T01:48:23;2.90;;;2.70;;
7683;SDS011;3884;48.616;12.872;2022-07-19T01:50:50;2.87;;;2.60;;
7683;SDS011;3884;48.616;12.872;2022-07-19T01:53:17;3.00;;;2.60;;
7683;SDS011;3884;48.616;12.872;2022-07-19T01:55:46;2.87;;;2.67;;
7683;SDS011;3884;48.616;12.872;2022-07-19T01:58:13;3.33;;;2.97;;
7683;SDS011;3884;48.616;12.872;2022-07-19T02:00:40;3.03;;;2.73;;
7683;SDS011;3884;48.616;12.872;2022-07-19T02:03:07;3.60;;;3.00;;
7683;SDS011;3884;48.616;12.872;2022-07-19T02:05:34;3.00;;;2.70;;
7683;SDS011;3884;48.616;12.872;2022-07-19T02:08:01;3.10;;;2.80;;
7683;SDS011;3884;48.616;12.872;2022-07-19T02:10:28;6.07;;;2.77;;
7683;SDS011;3884;48.616;12.872;2022-07-19T02:12:57;3.40;;;3.10;;
7683;SDS011;3884;48.616;12.872;2022-07-19T02:15:24;3.30;;;2.60;;
7683;SDS011;3884;48.616;12.872;2022-07-19T02:17:51;4.57;;;2.97;;
7683;SDS011;3884;48.616;12.872;2022-07-19T02:20:18;4.93;;;2.87;;
7683;SDS011;3884;48.616;12.872;2022-07-19T02:22:45;3.00;;;2.70;;
7683;SDS011;3884;48.616;12.872;2022-07-19T02:25:12;3.30;;;3.00;;
7683;SDS011;3884;48.616;12.872;2022-07-19T02:27:39;3.37;;;2.73;;
7683;SDS011;3884;48.616;12.872;2022-07-19T02:30:08;3.23;;;2.70;;
7683;SDS011;3884;48.616;12.872;2022-07-19T02:32:36;3.30;;;2.90;;
7683;SDS011;3884;48.616;12.872;2022-07-19T02:35:04;5.17;;;3.00;;
7683;SDS011;3884;48.616;12.872;2022-07-19T02:37:32;3.10;;;2.80;;
7683;SDS011;3884;48.616;12.872;2022-07-19T02:39:59;4.67;;;2.67;;
7683;SDS011;3884;48.616;12.872;2022-07-19T02:42:26;2.93;;;2.63;;
7683;SDS011;3884;48.616;12.872;2022-07-19T02:44:53;3.27;;;2.97;;
7683;SDS011;3884;48.616;12.872;2022-07-19T02:47:21;3.43;;;2.80;;
7683;SDS011;3884;48.616;12.872;2022-07-19T02:49:48;3.13;;;2.93;;
7683;SDS011;3884;48.616;12.872;2022-07-19T02:52:14;4.03;;;2.97;;
7683;SDS011;3884;48.616;12.872;2022-07-19T02:54:41;3.50;;;3.20;;
7683;SDS011;3884;48.616;12.872;2022-07-19T02:57:08;3.30;;;2.80;;
7683;SDS011;3884;48.616;12.872;2022-07-19T02:59:35;3.07;;;2.60;;
7683;SDS011;3884;48.616;12.872;2022-07-19T03:02:02;4.63;;;3.17;;
7683;SDS011;3884;48.616;12.872;2022-07-19T03:04:30;5.17;;;3.10;;
7683;SDS011;3884;48.616;12.872;2022-07-19T03:06:57;3.47;;;3.07;;
7683;SDS011;3884;48.616;12.872;2022-07-19T03:09:24;4.17;;;3.20;;
7683;SDS011;3884;48.616;12.872;2022-07-19T03:11:51;4.50;;;3.50;;
7683;SDS011;3884;48.616;12.872;2022-07-19T03:14:17;7.43;;;3.30;;
7683;SDS011;3884;48.616;12.872;2022-07-19T03:16:44;3.13;;;2.93;;
7683;SDS011;3884;48.616;12.872;2022-07-19T03:19:11;4.40;;;3.57;;
7683;SDS011;3884;48.616;12.872;2022-07-19T03:21:39;3.23;;;2.93;;
7683;SDS011;3884;48.616;12.872;2022-07-19T03:24:06;5.13;;;3.10;;
7683;SDS011;3884;48.616;12.872;2022-07-19T03:26:33;3.30;;;3.00;;
7683;SDS011;3884;48.616;12.872;2022-07-19T03:29:00;3.10;;;2.80;;
7683;SDS011;3884;48.616;12.872;2022-07-19T03:31:27;3.63;;;3.13;;
7683;SDS011;3884;48.616;12.872;2022-07-19T03:33:54;3.90;;;3.10;;
7683;SDS011;3884;48.616;12.872;2022-07-19T03:36:21;5.23;;;3.10;;
7683;SDS011;3884;48.616;12.872;2022-07-19T03:38:49;4.13;;;3.17;;
7683;SDS011;3884;48.616;12.872;2022-07-19T03:41:16;4.00;;;3.10;;
7683;SDS011;3884;48.616;12.872;2022-07-19T03:43:43;5.23;;;3.20;;
7683;SDS011;3884;48.616;12.872;2022-07-19T03:46:10;3.40;;;3.10;;
7683;SDS011;3884;48.616;12.872;2022-07-19T03:48:36;4.20;;;3.53;;
7683;SDS011;3884;48.616;12.872;2022-07-19T03:51:03;4.70;;;3.47;;
7683;SDS011;3884;48.616;12.872;2022-07-19T03:53:31;5.43;;;3.50;;
7683;SDS011;3884;48.616;12.872;2022-07-19T03:56:00;4.03;;;3.60;;
7683;SDS011;3884;48.616;12.872;2022-07-19T03:58:27;4.33;;;3.80;;
7683;SDS011;3884;48.616;12.872;2022-07-19T04:00:54;3.83;;;3.40;;
7683;SDS011;3884;48.616;12.872;2022-07-19T04:03:21;3.90;;;3.47;;
7683;SDS011;3884;48.616;12.872;2022-07-19T04:05:48;4.63;;;3.60;;
7683;SDS011;3884;48.616;12.872;2022-07-19T04:08:15;4.03;;;3.70;;
7683;SDS011;3884;48.616;12.872;2022-07-19T04:10:42;3.50;;;3.17;;
7683;SDS011;3884;48.616;12.872;2022-07-19T04:13:10;3.40;;;3.00;;
7683;SDS011;3884;48.616;12.872;2022-07-19T04:15:37;3.33;;;3.00;;
7683;SDS011;3884;48.616;12.872;2022-07-19T04:18:04;3.70;;;3.07;;
7683;SDS011;3884;48.616;12.872;2022-07-19T04:20:31;4.20;;;3.30;;
7683;SDS011;3884;48.616;12.872;2022-07-19T04:22:58;3.83;;;3.43;;
7683;SDS011;3884;48.616;12.872;2022-07-19T04:25:25;5.07;;;3.07;;
7683;SDS011;3884;48.616;12.872;2022-07-19T04:27:52;5.03;;;3.40;;
7683;SDS011;3884;48.616;12.872;2022-07-19T04:30:20;3.47;;;3.17;;
7683;SDS011;3884;48.616;12.872;2022-07-19T04:32:47;4.03;;;3.37;;
7683;SDS011;3884;48.616;12.872;2022-07-19T04:35:14;3.73;;;3.40;;
7683;SDS011;3884;48.616;12.872;2022-07-19T04:37:42;4.43;;;3.50;;
7683;SDS011;3884;48.616;12.872;2022-07-19T04:40:09;4.57;;;3.40;;
7683;SDS011;3884;48.616;12.872;2022-07-19T04:42:36;4.27;;;3.87;;
7683;SDS011;3884;48.616;12.872;2022-07-19T04:45:03;3.90;;;3.50;;
7683;SDS011;3884;48.616;12.872;2022-07-19T04:47:33;5.97;;;4.33;;
7683;SDS011;3884;48.616;12.872;2022-07-19T04:49:59;5.30;;;3.57;;
7683;SDS011;3884;48.616;12.872;2022-07-19T04:52:26;4.33;;;3.93;;
7683;SDS011;3884;48.616;12.872;2022-07-19T04:54:53;6.47;;;4.80;;
7683;SDS011;3884;48.616;12.872;2022-07-19T04:57:20;5.60;;;4.50;;
7683;SDS011;3884;48.616;12.872;2022-07-19T04:59:47;4.80;;;4.40;;
7683;SDS011;3884;48.616;12.872;2022-07-19T05:02:14;5.73;;;4.57;;
7683;SDS011;3884;48.616;12.872;2022-07-19T05:04:42;6.73;;;4.90;;
7683;SDS011;3884;48.616;12.872;2022-07-19T05:07:09;6.73;;;4.83;;
7683;SDS011;3884;48.616;12.872;2022-07-19T05:09:36;5.57;;;5.07;;
7683;SDS011;3884;48.616;12.872;2022-07-19T05:12:03;5.57;;;4.60;;
7683;SDS011;3884;48.616;12.872;2022-07-19T05:14:32;6.50;;;5.00;;
7683;SDS011;3884;48.616;12.872;2022-07-19T05:16:59;5.87;;;5.30;;
7683;SDS011;3884;48.616;12.872;2022-07-19T05:19:26;4.67;;;4.27;;
7683;SDS011;3884;48.616;12.872;2022-07-19T05:21:54;4.93;;;4.43;;
7683;SDS011;3884;48.616;12.872;2022-07-19T05:24:21;6.97;;;4.47;;
7683;SDS011;3884;48.616;12.872;2022-07-19T05:26:48;7.70;;;4.30;;
7683;SDS011;3884;48.616;12.872;2022-07-19T05:29:15;5.57;;;4.70;;
7683;SDS011;3884;48.616;12.872;2022-07-19T05:31:42;6.80;;;4.70;;
7683;SDS011;3884;48.616;12.872;2022-07-19T05:34:09;7.73;;;4.40;;
7683;SDS011;3884;48.616;12.872;2022-07-19T05:36:36;6.57;;;4.67;;
7683;SDS011;3884;48.616;12.872;2022-07-19T05:39:05;7.27;;;4.67;;
7683;SDS011;3884;48.616;12.872;2022-07-19T05:41:31;6.07;;;4.37;;
7683;SDS011;3884;48.616;12.872;2022-07-19T05:43:59;4.60;;;4.20;;
7683;SDS011;3884;48.616;12.872;2022-07-19T05:46:25;4.90;;;3.73;;
7683;SDS011;3884;48.616;12.872;2022-07-19T05:48:53;5.63;;;3.90;;
7683;SDS011;3884;48.616;12.872;2022-07-19T05:51:26;7.47;;;4.10;;
7683;SDS011;3884;48.616;12.872;2022-07-19T05:53:57;7.33;;;4.40;;
7683;SDS011;3884;48.616;12.872;2022-07-19T05:56:27;8.30;;;4.23;;
7683;SDS011;3884;48.616;12.872;2022-07-19T05:58:54;13.20;;;3.93;;
7683;SDS011;3884;48.616;12.872;2022-07-19T06:01:21;4.93;;;3.80;;
7683;SDS011;3884;48.616;12.872;2022-07-19T06:03:49;6.30;;;3.90;;
7683;SDS011;3884;48.616;12.872;2022-07-19T06:06:17;5.43;;;3.70;;
7683;SDS011;3884;48.616;12.872;2022-07-19T06:08:44;4.13;;;3.73;;
7683;SDS011;3884;48.616;12.872;2022-07-19T06:11:11;5.70;;;3.40;;
7683;SDS011;3884;48.616;12.872;2022-07-19T06:13:40;3.93;;;3.20;;
7683;SDS011;3884;48.616;12.872;2022-07-19T06:16:07;5.60;;;3.57;;
7683;SDS011;3884;48.616;12.872;2022-07-19T06:18:35;6.03;;;3.30;;
7683;SDS011;3884;48.616;12.872;2022-07-19T06:21:02;3.83;;;3.23;;
7683;SDS011;3884;48.616;12.872;2022-07-19T06:23:30;5.43;;;3.60;;
7683;SDS011;3884;48.616;12.872;2022-07-19T06:25:57;5.97;;;3.20;;
7683;SDS011;3884;48.616;12.872;2022-07-19T06:28:24;4.73;;;3.40;;
7683;SDS011;3884;48.616;12.872;2022-07-19T06:30:52;4.37;;;2.87;;
7683;SDS011;3884;48.616;12.872;2022-07-19T06:33:19;3.23;;;2.90;;
7683;SDS011;3884;48.616;12.872;2022-07-19T06:35:46;4.43;;;2.87;;
7683;SDS011;3884;48.616;12.872;2022-07-19T06:38:14;5.23;;;3.07;;
7683;SDS011;3884;48.616;12.872;2022-07-19T06:40:41;4.83;;;2.70;;
7683;SDS011;3884;48.616;12.872;2022-07-19T06:43:08;5.37;;;3.13;;
7683;SDS011;3884;48.616;12.872;2022-07-19T06:45:35;4.93;;;2.87;;
7683;SDS011;3884;48.616;12.872;2022-07-19T06:48:04;4.57;;;2.90;;
7683;SDS011;3884;48.616;12.872;2022-07-19T06:50:31;3.47;;;2.70;;
7683;SDS011;3884;48.616;12.872;2022-07-19T06:52:59;4.80;;;2.90;;
7683;SDS011;3884;48.616;12.872;2022-07-19T06:55:26;2.50;;;2.30;;
7683;SDS011;3884;48.616;12.872;2022-07-19T06:57:53;2.90;;;2.60;;
7683;SDS011;3884;48.616;12.872;2022-07-19T07:00:20;3.63;;;2.67;;
7683;SDS011;3884;48.616;12.872;2022-07-19T07:02:47;6.40;;;3.20;;
7683;SDS011;3884;48.616;12.872;2022-07-19T07:05:15;2.67;;;2.37;;
7683;SDS011;3884;48.616;12.872;2022-07-19T07:07:42;2.83;;;2.60;;
7683;SDS011;3884;48.616;12.872;2022-07-19T07:10:09;5.07;;;3.00;;
7683;SDS011;3884;48.616;12.872;2022-07-19T07:13:15;3.63;;;2.87;;
7683;SDS011;3884;48.616;12.872;2022-07-19T07:15:42;4.53;;;2.90;;
7683;SDS011;3884;48.616;12.872;2022-07-19T07:18:10;3.97;;;2.67;;
7683;SDS011;3884;48.616;12.872;2022-07-19T07:20:38;3.70;;;2.40;;
7683;SDS011;3884;48.616;12.872;2022-07-19T07:23:05;3.77;;;2.70;;
7683;SDS011;3884;48.616;12.872;2022-07-19T07:25:32;4.17;;;2.90;;
7683;SDS011;3884;48.616;12.872;2022-07-19T07:27:59;3.20;;;2.60;;
7683;SDS011;3884;48.616;12.872;2022-07-19T07:30:26;2.97;;;2.60;;
7683;SDS011;3884;48.616;12.872;2022-07-19T07:32:53;5.43;;;2.80;;
7683;SDS011;3884;48.616;12.872;2022-07-19T07:35:20;3.40;;;2.70;;
7683;SDS011;3884;48.616;12.872;2022-07-19T07:37:48;3.30;;;2.30;;
7683;SDS011;3884;48.616;12.872;2022-07-19T07:40:15;4.37;;;2.47;;
7683;SDS011;3884;48.616;12.872;2022-07-19T07:42:42;4.20;;;2.70;;
7683;SDS011;3884;48.616;12.872;2022-07-19T07:45:09;2.90;;;2.60;;
7683;SDS011;3884;48.616;12.872;2022-07-19T07:47:36;2.93;;;2.20;;
7683;SDS011;3884;48.616;12.872;2022-07-19T07:50:04;3.23;;;2.17;;
7683;SDS011;3884;48.616;12.872;2022-07-19T07:52:32;3.80;;;2.47;;
7683;SDS011;3884;48.616;12.872;2022-07-19T07:55:00;6.90;;;2.60;;
7683;SDS011;3884;48.616;12.872;2022-07-19T07:57:28;2.53;;;2.33;;
7683;SDS011;3884;48.616;12.872;2022-07-19T07:59:55;2.80;;;2.30;;
7683;SDS011;3884;48.616;12.872;2022-07-19T08:02:22;4.17;;;2.40;;
7683;SDS011;3884;48.616;12.872;2022-07-19T08:04:49;2.87;;;2.20;;
7683;SDS011;3884;48.616;12.872;2022-07-19T08:07:16;3.27;;;2.40;;
7683;SDS011;3884;48.616;12.872;2022-07-19T08:09:43;2.70;;;2.27;;
7683;SDS011;3884;48.616;12.872;2022-07-19T08:12:11;4.27;;;2.40;;
7683;SDS011;3884;48.616;12.872;2022-07-19T08:14:38;3.33;;;2.10;;
7683;SDS011;3884;48.616;12.872;2022-07-19T08:17:05;6.27;;;2.40;;
7683;SDS011;3884;48.616;12.872;2022-07-19T08:19:31;2.93;;;2.40;;
7683;SDS011;3884;48.616;12.872;2022-07-19T08:21:58;3.67;;;2.30;;
7683;SDS011;3884;48.616;12.872;2022-07-19T08:24:25;3.63;;;2.60;;
7683;SDS011;3884;48.616;12.872;2022-07-19T08:26:52;6.87;;;2.67;;
7683;SDS011;3884;48.616;12.872;2022-07-19T08:29:22;5.60;;;2.40;;
7683;SDS011;3884;48.616;12.872;2022-07-19T08:31:49;5.43;;;2.97;;
7683;SDS011;3884;48.616;12.872;2022-07-19T08:34:16;4.60;;;2.47;;
7683;SDS011;3884;48.616;12.872;2022-07-19T08:36:43;3.13;;;2.20;;
7683;SDS011;3884;48.616;12.872;2022-07-19T08:39:09;4.27;;;2.90;;
7683;SDS011;3884;48.616;12.872;2022-07-19T08:41:36;2.97;;;2.30;;
7683;SDS011;3884;48.616;12.872;2022-07-19T08:44:04;5.67;;;2.30;;
7683;SDS011;3884;48.616;12.872;2022-07-19T08:46:32;4.03;;;2.00;;
7683;SDS011;3884;48.616;12.872;2022-07-19T08:48:59;3.77;;;2.47;;
7683;SDS011;3884;48.616;12.872;2022-07-19T08:51:27;5.17;;;2.40;;
7683;SDS011;3884;48.616;12.872;2022-07-19T08:53:54;2.70;;;1.93;;
7683;SDS011;3884;48.616;12.872;2022-07-19T08:56:21;3.27;;;2.20;;
7683;SDS011;3884;48.616;12.872;2022-07-19T08:59:06;6.70;;;2.10;;
7683;SDS011;3884;48.616;12.872;2022-07-19T09:01:34;4.67;;;2.23;;
7683;SDS011;3884;48.616;12.872;2022-07-19T09:04:02;5.57;;;2.30;;
7683;SDS011;3884;48.616;12.872;2022-07-19T09:06:34;5.07;;;2.23;;
7683;SDS011;3884;48.616;12.872;2022-07-19T09:09:04;4.13;;;2.20;;
7683;SDS011;3884;48.616;12.872;2022-07-19T09:11:34;2.83;;;2.00;;
7683;SDS011;3884;48.616;12.872;2022-07-19T09:14:07;3.50;;;2.10;;
7683;SDS011;3884;48.616;12.872;2022-07-19T09:16:48;3.33;;;2.47;;
7683;SDS011;3884;48.616;12.872;2022-07-19T09:19:26;5.37;;;2.00;;
7683;SDS011;3884;48.616;12.872;2022-07-19T09:21:55;2.33;;;2.10;;
7683;SDS011;3884;48.616;12.872;2022-07-19T09:24:24;3.27;;;2.13;;
7683;SDS011;3884;48.616;12.872;2022-07-19T09:26:59;5.00;;;2.23;;
7683;SDS011;3884;48.616;12.872;2022-07-19T09:29:29;3.40;;;2.03;;
7683;SDS011;3884;48.616;12.872;2022-07-19T09:32:01;4.17;;;2.20;;
7683;SDS011;3884;48.616;12.872;2022-07-19T09:34:33;3.23;;;2.23;;
7683;SDS011;3884;48.616;12.872;2022-07-19T09:37:08;3.97;;;2.23;;
7683;SDS011;3884;48.616;12.872;2022-07-19T09:39:39;3.13;;;2.20;;
7683;SDS011;3884;48.616;12.872;2022-07-19T09:42:10;3.63;;;1.80;;
7683;SDS011;3884;48.616;12.872;2022-07-19T09:44:37;4.03;;;2.00;;
7683;SDS011;3884;48.616;12.872;2022-07-19T09:47:06;3.27;;;2.03;;
7683;SDS011;3884;48.616;12.872;2022-07-19T09:49:33;2.33;;;1.80;;
7683;SDS011;3884;48.616;12.872;2022-07-19T09:52:00;2.53;;;2.33;;
7683;SDS011;3884;48.616;12.872;2022-07-19T09:54:27;3.67;;;2.47;;
7683;SDS011;3884;48.616;12.872;2022-07-19T09:56:57;4.17;;;2.20;;
7683;SDS011;3884;48.616;12.872;2022-07-19T09:59:26;2.50;;;2.30;;
7683;SDS011;3884;48.616;12.872;2022-07-19T10:01:54;2.53;;;1.90;;
7683;SDS011;3884;48.616;12.872;2022-07-19T10:04:23;3.23;;;2.20;;
7683;SDS011;3884;48.616;12.872;2022-07-19T10:06:52;2.70;;;1.83;;
7683;SDS011;3884;48.616;12.872;2022-07-19T10:09:20;2.70;;;2.07;;
7683;SDS011;3884;48.616;12.872;2022-07-19T10:11:48;4.03;;;1.80;;
7683;SDS011;3884;48.616;12.872;2022-07-19T10:14:16;4.23;;;2.00;;
7683;SDS011;3884;48.616;12.872;2022-07-19T10:16:45;2.00;;;1.80;;
7683;SDS011;3884;48.616;12.872;2022-07-19T10:19:25;3.70;;;1.90;;
7683;SDS011;3884;48.616;12.872;2022-07-19T10:21:59;3.57;;;2.17;;
7683;SDS011;3884;48.616;12.872;2022-07-19T10:24:43;3.13;;;1.90;;
7683;SDS011;3884;48.616;12.872;2022-07-19T10:27:16;3.00;;;1.90;;
7683;SDS011;3884;48.616;12.872;2022-07-19T10:29:44;3.80;;;2.20;;
7683;SDS011;3884;48.616;12.872;2022-07-19T10:32:12;4.67;;;2.27;;
7683;SDS011;3884;48.616;12.872;2022-07-19T10:34:41;2.47;;;1.90;;
7683;SDS011;3884;48.616;12.872;2022-07-19T10:37:11;3.30;;;2.10;;
7683;SDS011;3884;48.616;12.872;2022-07-19T10:39:39;2.47;;;2.20;;
7683;SDS011;3884;48.616;12.872;2022-07-19T10:42:07;4.13;;;2.20;;
7683;SDS011;3884;48.616;12.872;2022-07-19T10:56:42;2.37;;;2.10;;
7683;SDS011;3884;48.616;12.872;2022-07-19T10:59:39;3.13;;;2.33;;
7683;SDS011;3884;48.616;12.872;2022-07-19T11:02:07;5.13;;;2.40;;
7683;SDS011;3884;48.616;12.872;2022-07-19T11:04:49;3.27;;;2.43;;
7683;SDS011;3884;48.616;12.872;2022-07-19T11:07:19;2.50;;;2.27;;
7683;SDS011;3884;48.616;12.872;2022-07-19T11:09:51;4.03;;;2.40;;
7683;SDS011;3884;48.616;12.872;2022-07-19T11:12:30;4.77;;;2.37;;
7683;SDS011;3884;48.616;12.872;2022-07-19T11:15:00;2.77;;;2.17;;
7683;SDS011;3884;48.616;12.872;2022-07-19T11:17:30;4.17;;;2.67;;
7683;SDS011;3884;48.616;12.872;2022-07-19T11:20:02;3.57;;;2.60;;
7683;SDS011;3884;48.616;12.872;2022-07-19T11:22:34;3.57;;;2.50;;
7683;SDS011;3884;48.616;12.872;2022-07-19T11:25:02;5.57;;;2.97;;
7683;SDS011;3884;48.616;12.872;2022-07-19T11:27:31;3.67;;;2.87;;
7683;SDS011;3884;48.616;12.872;2022-07-19T11:30:00;3.70;;;2.80;;
7683;SDS011;3884;48.616;12.872;2022-07-19T11:32:28;4.27;;;3.37;;
7683;SDS011;3884;48.616;12.872;2022-07-19T11:34:56;6.53;;;3.50;;
7683;SDS011;3884;48.616;12.872;2022-07-19T11:37:26;8.17;;;3.77;;
7683;SDS011;3884;48.616;12.872;2022-07-19T11:39:55;4.83;;;3.40;;
7683;SDS011;3884;48.616;12.872;2022-07-19T11:42:27;3.90;;;2.80;;
7683;SDS011;3884;48.616;12.872;2022-07-19T11:44:59;5.63;;;3.20;;
7683;SDS011;3884;48.616;12.872;2022-07-19T11:47:33;3.60;;;2.90;;
7683;SDS011;3884;48.616;12.872;2022-07-19T11:50:02;3.60;;;3.00;;
7683;SDS011;3884;48.616;12.872;2022-07-19T11:52:40;3.43;;;3.03;;
7683;SDS011;3884;48.616;12.872;2022-07-19T11:55:12;3.17;;;2.70;;
7683;SDS011;3884;48.616;12.872;2022-07-19T11:57:40;5.00;;;2.40;;
7683;SDS011;3884;48.616;12.872;2022-07-19T12:00:07;3.60;;;2.70;;
7683;SDS011;3884;48.616;12.872;2022-07-19T12:02:55;3.90;;;2.60;;
7683;SDS011;3884;48.616;12.872;2022-07-19T12:05:28;4.17;;;2.70;;
7683;SDS011;3884;48.616;12.872;2022-07-19T12:07:57;5.67;;;2.77;;
7683;SDS011;3884;48.616;12.872;2022-07-19T12:10:33;2.90;;;2.60;;
7683;SDS011;3884;48.616;12.872;2022-07-19T12:13:03;3.43;;;2.80;;
7683;SDS011;3884;48.616;12.872;2022-07-19T12:15:42;5.40;;;2.70;;
7683;SDS011;3884;48.616;12.872;2022-07-19T12:18:10;3.70;;;2.47;;
7683;SDS011;3884;48.616;12.872;2022-07-19T12:20:38;2.50;;;2.30;;
7683;SDS011;3884;48.616;12.872;2022-07-19T12:23:11;6.57;;;2.70;;
7683;SDS011;3884;48.616;12.872;2022-07-19T12:25:41;3.90;;;2.67;;
7683;SDS011;3884;48.616;12.872;2022-07-19T12:28:09;2.90;;;2.40;;
7683;SDS011;3884;48.616;12.872;2022-07-19T12:30:36;4.20;;;2.70;;
7683;SDS011;3884;48.616;12.872;2022-07-19T12:33:07;3.57;;;2.60;;
7683;SDS011;3884;48.616;12.872;2022-07-19T12:35:42;3.90;;;2.23;;
7683;SDS011;3884;48.616;12.872;2022-07-19T12:38:10;3.17;;;2.30;;
7683;SDS011;3884;48.616;12.872;2022-07-19T12:40:38;4.10;;;2.70;;
7683;SDS011;3884;48.616;12.872;2022-07-19T12:43:09;4.83;;;2.80;;
7683;SDS011;3884;48.616;12.872;2022-07-19T12:45:39;3.03;;;2.40;;
7683;SDS011;3884;48.616;12.872;2022-07-19T12:48:09;3.43;;;2.27;;
7683;SDS011;3884;48.616;12.872;2022-07-19T12:50:38;2.80;;;2.50;;
7683;SDS011;3884;48.616;12.872;2022-07-19T12:53:10;3.57;;;2.80;;
7683;SDS011;3884;48.616;12.872;2022-07-19T12:55:38;4.37;;;2.30;;
7683;SDS011;3884;48.616;12.872;2022-07-19T12:58:10;3.50;;;2.50;;
7683;SDS011;3884;48.616;12.872;2022-07-19T13:00:38;2.57;;;2.37;;
7683;SDS011;3884;48.616;12.872;2022-07-19T13:03:06;3.53;;;2.17;;
7683;SDS011;3884;48.616;12.872;2022-07-19T13:05:34;3.83;;;2.40;;
7683;SDS011;3884;48.616;12.872;2022-07-19T13:08:02;4.43;;;2.40;;
7683;SDS011;3884;48.616;12.872;2022-07-19T13:10:29;3.67;;;2.57;;
7683;SDS011;3884;48.616;12.872;2022-07-19T13:12:57;5.97;;;2.27;;
7683;SDS011;3884;48.616;12.872;2022-07-19T13:15:25;5.87;;;2.77;;
7683;SDS011;3884;48.616;12.872;2022-07-19T13:17:52;3.30;;;2.30;;
7683;SDS011;3884;48.616;12.872;2022-07-19T13:20:19;4.23;;;2.20;;
7683;SDS011;3884;48.616;12.872;2022-07-19T13:22:45;3.83;;;2.63;;
7683;SDS011;3884;48.616;12.872;2022-07-19T13:25:12;4.30;;;2.40;;
7683;SDS011;3884;48.616;12.872;2022-07-19T13:27:40;3.20;;;2.60;;
7683;SDS011;3884;48.616;12.872;2022-07-19T13:30:07;4.47;;;2.00;;
7683;SDS011;3884;48.616;12.872;2022-07-19T13:32:37;5.10;;;2.40;;
7683;SDS011;3884;48.616;12.872;2022-07-19T13:35:05;3.67;;;2.10;;
7683;SDS011;3884;48.616;12.872;2022-07-19T13:37:33;3.73;;;2.20;;
7683;SDS011;3884;48.616;12.872;2022-07-19T13:40:00;4.20;;;2.20;;
7683;SDS011;3884;48.616;12.872;2022-07-19T13:42:26;2.27;;;2.00;;
7683;SDS011;3884;48.616;12.872;2022-07-19T13:44:53;2.57;;;2.17;;
7683;SDS011;3884;48.616;12.872;2022-07-19T13:47:20;4.43;;;2.40;;
7683;SDS011;3884;48.616;12.872;2022-07-19T13:49:48;4.90;;;2.20;;
7683;SDS011;3884;48.616;12.872;2022-07-19T13:52:15;5.03;;;2.57;;
7683;SDS011;3884;48.616;12.872;2022-07-19T13:54:42;2.70;;;2.20;;
7683;SDS011;3884;48.616;12.872;2022-07-19T13:57:09;2.57;;;2.03;;
7683;SDS011;3884;48.616;12.872;2022-07-19T13:59:36;3.40;;;2.03;;
7683;SDS011;3884;48.616;12.872;2022-07-19T14:02:03;5.60;;;2.27;;
7683;SDS011;3884;48.616;12.872;2022-07-19T14:04:30;2.87;;;2.10;;
7683;SDS011;3884;48.616;12.872;2022-07-19T14:06:58;4.20;;;2.13;;
7683;SDS011;3884;48.616;12.872;2022-07-19T14:09:25;5.70;;;2.20;;
7683;SDS011;3884;48.616;12.872;2022-07-19T14:11:52;4.73;;;2.10;;
7683;SDS011;3884;48.616;12.872;2022-07-19T14:14:19;5.03;;;2.30;;
7683;SDS011;3884;48.616;12.872;2022-07-19T14:16:45;5.37;;;2.17;;
7683;SDS011;3884;48.616;12.872;2022-07-19T14:19:14;5.93;;;2.20;;
7683;SDS011;3884;48.616;12.872;2022-07-19T14:21:40;3.30;;;2.27;;
7683;SDS011;3884;48.616;12.872;2022-07-19T14:24:09;6.40;;;2.30;;
7683;SDS011;3884;48.616;12.872;2022-07-19T14:26:36;4.10;;;2.50;;
7683;SDS011;3884;48.616;12.872;2022-07-19T14:29:02;4.23;;;2.20;;
7683;SDS011;3884;48.616;12.872;2022-07-19T14:31:30;7.03;;;2.40;;
7683;SDS011;3884;48.616;12.872;2022-07-19T14:33:56;5.57;;;2.40;;
7683;SDS011;3884;48.616;12.872;2022-07-19T14:36:23;3.03;;;2.30;;
7683;SDS011;3884;48.616;12.872;2022-07-19T14:38:51;5.77;;;2.90;;
7683;SDS011;3884;48.616;12.872;2022-07-19T14:41:19;3.87;;;2.47;;
7683;SDS011;3884;48.616;12.872;2022-07-19T14:43:46;4.83;;;2.47;;
7683;SDS011;3884;48.616;12.872;2022-07-19T14:46:14;3.00;;;2.63;;
7683;SDS011;3884;48.616;12.872;2022-07-19T14:48:41;7.00;;;2.40;;
7683;SDS011;3884;48.616;12.872;2022-07-19T14:51:07;2.47;;;2.27;;
7683;SDS011;3884;48.616;12.872;2022-07-19T14:53:34;7.20;;;2.30;;
7683;SDS011;3884;48.616;12.872;2022-07-19T14:56:01;5.70;;;2.63;;
7683;SDS011;3884;48.616;12.872;2022-07-19T14:58:30;3.83;;;2.83;;
7683;SDS011;3884;48.616;12.872;2022-07-19T15:00:56;4.20;;;2.60;;
7683;SDS011;3884;48.616;12.872;2022-07-19T15:03:23;6.03;;;2.77;;
7683;SDS011;3884;48.616;12.872;2022-07-19T15:05:50;4.13;;;2.30;;
7683;SDS011;3884;48.616;12.872;2022-07-19T15:08:17;3.40;;;2.40;;
7683;SDS011;3884;48.616;12.872;2022-07-19T15:10:44;4.10;;;2.43;;
7683;SDS011;3884;48.616;12.872;2022-07-19T15:13:11;4.77;;;2.30;;
7683;SDS011;3884;48.616;12.872;2022-07-19T15:15:40;2.43;;;2.20;;
7683;SDS011;3884;48.616;12.872;2022-07-19T15:18:06;3.17;;;2.07;;
7683;SDS011;3884;48.616;12.872;2022-07-19T15:20:33;3.60;;;2.33;;